METAR AND TAF INFORMATION
METAR FOR MYGF
ADDS - METARS form results

(0947 UTC 16 January 2019)
Data provider http://aviationweather.gov/metar/data/
 
Forecast for: MYGF (FREEPORT INTL A , BS)
Text: MYGF 160430Z 1606/1706 35010KT 9999 BKN045
Forecast period: 0600 UTC 16 January 2019 to 0600 UTC 17 January 2019
Forecast type: FROM: standard forecast or significant change
Winds: from the N (350 degrees) at 12 MPH (10 knots; 5.1 m/s)
Visibility: 6 or more miles 10+ km)
Ceiling: 4500 feet AGL
Clouds: broken clouds at 4500 feet AGL
Weather: no significant weather forecast for this period

 AIRPORT MAP

Esri Leaflet Quickstart
 RUNWAY INFORMATION
Runway 06 Runway length 11019 ft Runway width 151 ft
Runway elevation 6 ft Runway displaced threshold 0 ft Runway heading 61
Runway 24 Runway length 11019 ft Runway width 151 ft
Runway elevation 7 ft Runway displaced threshold 0 ft Runway heading 241

 AIRPORT FREQUENCIES
Type APP Name APP Frequency 126.5 MHZ
Type GND Name GND Frequency 121.7 MHZ
Type TWR Name TWR Frequency 118.5 MHZ

 AIRPORT NEAR NAVIGATION AIDS
Type VOR-DME Name Freeport Frequency 113200 KHZ
Type NDB Name Freeport Frequency 209 KHZ



Powered by Virtual Airlines Manager [v2.6.2]